MATER UKLL (LWO)

Остані дані METAR із Аеропорта UKLL (LWO)

L'Viv, Ukraine (UKLL) 49-49N 023-57E 323M
Jan 18, 2020 - 04:00 PM EST / 2020.01.18 2100 UTC
Wind: from the SE (140 degrees) at 4 MPH (4 KT) (direction variable):0
Visibility: 2 mile(s):0
Sky conditions: overcast
Weather: mist
Temperature: 28 F (-2 C)
Dew Point: 26 F (-3 C)
Relative Humidity: 92%
Pressure (altimeter): 30.24 in. Hg (1024 hPa)
ob: UKLL 182100Z 14002MPS 100V180 4000 BR OVC002 M02/M03 Q1024 R13/CLRD// NOSIG
cycle: 21